createdAt,value
2019-02-14T00:00:13.202Z,6.60
2019-02-14T00:02:41.662Z,6.50
2019-02-14T00:05:16.157Z,6.50
2019-02-14T00:07:40.436Z,6.50
2019-02-14T00:10:09.945Z,6.50
2019-02-14T00:12:38.390Z,6.50
2019-02-14T00:15:14.206Z,6.60
2019-02-14T00:17:42.667Z,6.60
2019-02-14T00:20:31.971Z,6.60
2019-02-14T00:23:00.506Z,6.60
2019-02-14T00:25:28.956Z,6.60
2019-02-14T00:27:57.421Z,6.60
2019-02-14T00:30:25.860Z,6.60
2019-02-14T00:32:54.322Z,6.60
2019-02-14T00:35:25.138Z,6.60
2019-02-14T00:37:52.958Z,6.60
2019-02-14T00:40:21.395Z,6.60
2019-02-14T00:42:49.859Z,6.60
2019-02-14T00:45:18.303Z,6.60
2019-02-14T00:47:46.759Z,6.60
2019-02-14T00:50:15.198Z,6.60
2019-02-14T00:52:43.655Z,6.60
2019-02-14T00:55:12.104Z,6.60
2019-02-14T00:57:59.887Z,6.60
2019-02-14T01:00:28.335Z,6.60
2019-02-14T01:02:56.797Z,6.60
2019-02-14T01:05:33.100Z,6.60
2019-02-14T01:07:55.423Z,6.60
2019-02-14T01:10:23.874Z,6.60
2019-02-14T01:12:52.332Z,6.60
2019-02-14T01:15:22.414Z,6.60
2019-02-14T01:17:50.871Z,6.60
2019-02-14T01:20:19.328Z,6.60
2019-02-14T01:22:47.774Z,6.60
2019-02-14T01:25:16.217Z,6.60
2019-02-14T01:27:44.675Z,6.70
2019-02-14T01:30:13.115Z,6.60
2019-02-14T01:32:41.567Z,6.70
2019-02-14T01:35:10.178Z,6.60
2019-02-14T01:37:38.642Z,6.60
2019-02-14T01:40:08.122Z,6.60
2019-02-14T01:42:36.583Z,6.60
2019-02-14T01:45:08.573Z,6.60
2019-02-14T01:47:37.023Z,6.60
2019-02-14T01:50:10.498Z,6.60
2019-02-14T01:52:38.959Z,6.60
2019-02-14T01:55:07.407Z,6.60
2019-02-14T01:57:35.934Z,6.60
2019-02-14T02:00:23.719Z,6.60
2019-02-14T02:02:52.177Z,6.60
2019-02-14T02:05:20.620Z,6.60
2019-02-14T02:07:49.151Z,6.60
2019-02-14T02:10:17.594Z,6.60
2019-02-14T02:12:46.117Z,6.60
2019-02-14T02:15:15.141Z,6.60
2019-02-14T02:17:43.599Z,6.60
2019-02-14T02:20:12.039Z,6.60
2019-02-14T02:22:40.496Z,6.50
2019-02-14T02:25:11.184Z,6.50
2019-02-14T02:27:39.808Z,6.40
2019-02-14T02:30:13.720Z,6.40
2019-02-14T02:32:42.252Z,6.40
2019-02-14T02:35:10.871Z,6.30
2019-02-14T02:37:39.327Z,6.30
2019-02-14T02:40:09.018Z,6.30
2019-02-14T02:42:37.470Z,6.30
2019-02-14T02:45:11.284Z,6.30
2019-02-14T02:47:39.747Z,6.30
2019-02-14T02:50:10.633Z,6.30
2019-02-14T02:52:39.080Z,6.30
2019-02-14T02:55:09.596Z,6.30
2019-02-14T02:57:38.039Z,6.30
2019-02-14T03:00:09.579Z,6.20
2019-02-14T03:02:38.082Z,6.30
2019-02-14T03:05:09.683Z,6.30
2019-02-14T03:07:38.157Z,6.20
2019-02-14T03:10:09.901Z,6.20
2019-02-14T03:12:38.347Z,6.20
2019-02-14T03:15:09.911Z,6.20
2019-02-14T03:17:38.360Z,6.20
2019-02-14T03:20:09.814Z,6.20
2019-02-14T03:22:38.469Z,6.20
2019-02-14T03:25:10.772Z,6.30
2019-02-14T03:27:39.503Z,6.30
2019-02-14T03:30:11.051Z,6.30
2019-02-14T03:32:39.492Z,6.30
2019-02-14T03:35:08.579Z,6.30
2019-02-14T03:37:37.891Z,6.30
2019-02-14T03:40:11.832Z,6.30
2019-02-14T03:42:40.277Z,6.30
2019-02-14T03:45:11.836Z,6.30
2019-02-14T03:47:40.287Z,6.30
2019-02-14T03:50:10.786Z,6.30
2019-02-14T03:52:39.228Z,6.30
2019-02-14T03:55:09.721Z,6.20
2019-02-14T03:57:38.995Z,6.20
2019-02-14T04:00:15.968Z,6.20
2019-02-14T04:02:44.415Z,6.20
2019-02-14T04:05:12.938Z,6.20
2019-02-14T04:07:41.440Z,6.20
2019-02-14T04:10:14.103Z,6.20
2019-02-14T04:12:42.564Z,6.20
2019-02-14T04:15:17.880Z,6.20
2019-02-14T04:17:46.368Z,6.10
2019-02-14T04:20:34.155Z,6.10
2019-02-14T04:23:02.804Z,6.10
2019-02-14T04:25:31.260Z,6.10
2019-02-14T04:27:59.718Z,6.10
2019-02-14T04:30:28.237Z,6.10
2019-02-14T04:32:56.687Z,6.10
2019-02-14T04:35:25.144Z,6.10
2019-02-14T04:37:53.588Z,6.10
2019-02-14T04:40:22.040Z,6.10
2019-02-14T04:42:50.482Z,6.10
2019-02-14T04:45:18.934Z,6.10
2019-02-14T04:47:47.395Z,6.10
2019-02-14T04:50:15.857Z,6.10
2019-02-14T04:52:44.352Z,6.10
2019-02-14T04:55:12.945Z,6.10
2019-02-14T04:57:41.391Z,6.10
2019-02-14T05:00:12.911Z,6.10
2019-02-14T05:02:41.499Z,6.10
2019-02-14T05:05:10.184Z,6.10
2019-02-14T05:07:38.636Z,6.10
2019-02-14T05:10:09.137Z,6.20
2019-02-14T05:12:37.577Z,6.20
2019-02-14T05:15:07.867Z,6.20
2019-02-14T05:17:36.312Z,6.20
2019-02-14T05:20:07.768Z,6.20
2019-02-14T05:22:36.207Z,6.20
2019-02-14T05:25:06.294Z,6.20
2019-02-14T05:27:34.742Z,6.20
2019-02-14T05:30:04.447Z,6.20
2019-02-14T05:32:32.963Z,6.20
2019-02-14T05:35:01.411Z,6.20
2019-02-14T05:37:29.862Z,6.20
2019-02-14T05:39:58.302Z,6.20
2019-02-14T05:42:26.755Z,6.20
2019-02-14T05:44:55.199Z,6.10
2019-02-14T05:47:23.729Z,6.10
2019-02-14T05:49:52.183Z,6.20
2019-02-14T05:52:20.649Z,6.20
2019-02-14T05:54:49.151Z,6.20
2019-02-14T05:57:17.608Z,6.20
2019-02-14T05:59:46.243Z,6.20
2019-02-14T06:02:16.331Z,6.20
2019-02-14T06:04:44.773Z,6.20
2019-02-14T06:07:13.223Z,6.20
2019-02-14T06:09:41.667Z,6.20
2019-02-14T06:12:10.123Z,6.20
2019-02-14T06:14:38.567Z,6.20
2019-02-14T06:17:07.024Z,6.20
2019-02-14T06:19:35.468Z,6.20
2019-02-14T06:22:03.918Z,6.20
2019-02-14T06:24:32.996Z,6.30
2019-02-14T06:27:01.435Z,6.30
2019-02-14T06:29:29.884Z,6.30
2019-02-14T06:31:58.335Z,6.20
2019-02-14T06:34:26.770Z,6.20
2019-02-14T06:36:55.225Z,6.20
2019-02-14T06:39:23.659Z,6.30
2019-02-14T06:41:52.106Z,6.30
2019-02-14T06:44:20.546Z,6.30
2019-02-14T06:46:48.995Z,6.30
2019-02-14T06:49:17.438Z,6.30
2019-02-14T06:51:45.892Z,6.40
2019-02-14T06:54:14.343Z,6.40
2019-02-14T06:56:42.795Z,6.40
2019-02-14T06:59:11.244Z,6.40
2019-02-14T07:01:39.708Z,6.50
2019-02-14T07:04:08.148Z,6.50
2019-02-14T07:06:36.608Z,6.60
2019-02-14T07:09:05.835Z,6.60
2019-02-14T07:11:34.288Z,6.60
2019-02-14T07:14:03.167Z,6.70
2019-02-14T07:16:31.623Z,6.70
2019-02-14T07:19:00.072Z,6.70
2019-02-14T07:21:28.523Z,6.70
2019-02-14T07:23:56.959Z,6.70
2019-02-14T07:26:25.419Z,6.60
2019-02-14T07:28:53.867Z,6.60
2019-02-14T07:31:22.395Z,6.60
2019-02-14T07:33:50.839Z,6.60
2019-02-14T07:36:19.287Z,6.50
2019-02-14T07:38:47.816Z,6.60
2019-02-14T07:41:16.272Z,6.60
2019-02-14T07:43:44.787Z,6.50
2019-02-14T07:46:13.357Z,6.50
2019-02-14T07:48:41.814Z,6.60
2019-02-14T07:51:10.255Z,6.70
2019-02-14T07:53:38.711Z,6.70
2019-02-14T07:56:07.157Z,6.70
2019-02-14T07:58:35.603Z,6.70
2019-02-14T08:01:04.038Z,6.80
2019-02-14T08:03:33.215Z,6.80
2019-02-14T08:06:01.655Z,6.90
2019-02-14T08:08:30.111Z,6.90
2019-02-14T08:10:58.623Z,6.80
2019-02-14T08:13:27.084Z,6.80
2019-02-14T08:15:55.538Z,6.80
2019-02-14T08:18:24.104Z,6.90
2019-02-14T08:20:52.551Z,6.90
2019-02-14T08:23:21.092Z,7.10
2019-02-14T08:25:49.523Z,7.10
2019-02-14T08:28:18.003Z,7.10
2019-02-14T08:30:46.503Z,7.10
2019-02-14T08:33:14.963Z,7.00
2019-02-14T08:35:43.534Z,7.00
2019-02-14T08:38:11.988Z,7.00
2019-02-14T08:40:40.433Z,7.10
2019-02-14T08:43:08.937Z,7.20
2019-02-14T08:45:37.371Z,7.30
2019-02-14T08:48:06.172Z,7.30
2019-02-14T08:50:34.619Z,7.30
2019-02-14T08:53:03.392Z,7.30
2019-02-14T08:55:31.827Z,7.30
2019-02-14T08:58:00.277Z,7.40
2019-02-14T09:00:28.740Z,7.40
2019-02-14T09:02:57.200Z,7.40
2019-02-14T09:05:25.768Z,7.30
2019-02-14T09:07:55.189Z,7.20
2019-02-14T09:10:23.781Z,7.30
2019-02-14T09:12:52.236Z,7.30
2019-02-14T09:15:20.719Z,7.40
2019-02-14T09:17:49.178Z,7.60
2019-02-14T09:20:24.588Z,7.40
2019-02-14T09:22:53.051Z,7.40
2019-02-14T09:25:21.591Z,7.50
2019-02-14T09:27:50.051Z,7.50
2019-02-14T09:30:18.602Z,7.50
2019-02-14T09:32:47.162Z,7.40
2019-02-14T09:35:15.615Z,7.40
2019-02-14T09:37:44.067Z,7.40
2019-02-14T09:40:17.393Z,7.30
2019-02-14T09:42:45.858Z,7.40
2019-02-14T09:45:14.747Z,7.50
2019-02-14T09:47:43.216Z,7.50
2019-02-14T09:50:14.796Z,7.50
2019-02-14T09:52:43.259Z,7.40
2019-02-14T09:55:12.962Z,7.60
2019-02-14T09:57:41.558Z,7.70
2019-02-14T10:00:18.231Z,7.70
2019-02-14T10:02:46.760Z,7.80
2019-02-14T10:05:15.624Z,7.70
2019-02-14T10:07:44.117Z,7.90
2019-02-14T10:10:17.749Z,8.10
2019-02-14T10:12:46.273Z,8.50
2019-02-14T10:15:14.720Z,8.80
2019-02-14T10:17:43.170Z,8.80
2019-02-14T10:20:14.778Z,8.90
2019-02-14T10:22:43.236Z,8.70
2019-02-14T10:25:12.571Z,8.70
2019-02-14T10:27:41.028Z,8.50
2019-02-14T10:30:12.787Z,8.50
2019-02-14T10:32:41.243Z,8.60
2019-02-14T10:35:09.682Z,8.80
2019-02-14T10:37:38.140Z,9.00
2019-02-14T10:40:09.487Z,9.30
2019-02-14T10:42:37.936Z,9.60
2019-02-14T10:45:21.488Z,9.90
2019-02-14T10:47:49.943Z,10.20
2019-02-14T10:50:18.394Z,10.30
2019-02-14T10:52:46.843Z,10.50
2019-02-14T10:55:15.850Z,10.00
2019-02-14T10:57:44.450Z,9.90
2019-02-14T11:00:23.576Z,9.70
2019-02-14T11:02:52.354Z,9.80
2019-02-14T11:05:20.971Z,9.50
2019-02-14T11:07:49.411Z,9.50
2019-02-14T11:10:18.134Z,9.60
2019-02-14T11:12:46.583Z,10.00
2019-02-14T11:15:19.866Z,10.20
2019-02-14T11:17:49.048Z,10.40
2019-02-14T11:20:18.180Z,10.10
2019-02-14T11:22:48.857Z,10.10
2019-02-14T11:25:32.001Z,9.90
2019-02-14T11:28:00.515Z,10.10
2019-02-14T11:30:28.983Z,9.80
2019-02-14T11:32:57.423Z,9.80
2019-02-14T11:35:25.891Z,9.90
2019-02-14T11:37:54.332Z,9.80
2019-02-14T11:40:22.837Z,9.70
2019-02-14T11:42:51.312Z,9.70
2019-02-14T11:45:21.206Z,9.60
2019-02-14T11:47:49.642Z,9.60
2019-02-14T11:50:18.137Z,9.60
2019-02-14T11:52:46.735Z,9.40
2019-02-14T11:55:15.400Z,9.40
2019-02-14T11:57:43.926Z,9.50
2019-02-14T12:02:55.684Z,9.90
2019-02-14T12:05:21.039Z,10.80
2019-02-14T12:07:49.479Z,11.50
2019-02-14T12:10:17.945Z,10.60
2019-02-14T12:12:46.461Z,10.30
2019-02-14T12:15:15.269Z,10.00
2019-02-14T12:17:43.710Z,10.00
2019-02-14T12:20:33.740Z,10.10
2019-02-14T12:23:02.188Z,9.90
2019-02-14T12:25:32.286Z,9.70
2019-02-14T12:28:00.728Z,9.60
2019-02-14T12:30:29.244Z,9.90
2019-02-14T12:32:57.690Z,10.40
2019-02-14T12:35:26.138Z,10.20
2019-02-14T12:37:54.590Z,10.50
2019-02-14T12:40:23.102Z,11.00
2019-02-14T12:42:51.552Z,12.10
2019-02-14T12:45:26.033Z,13.00
2019-02-14T12:47:54.755Z,12.40
2019-02-14T12:50:23.220Z,11.80
2019-02-14T12:52:51.666Z,11.90
2019-02-14T12:55:20.115Z,11.90
2019-02-14T12:57:48.550Z,12.40
2019-02-14T13:00:21.634Z,13.20
2019-02-14T13:02:50.080Z,13.30
2019-02-14T13:05:18.560Z,13.50
2019-02-14T13:07:47.027Z,13.20
2019-02-14T13:10:17.082Z,12.80
2019-02-14T13:12:45.523Z,12.40
2019-02-14T13:15:16.710Z,12.30
2019-02-14T13:17:45.165Z,11.60
2019-02-14T13:20:13.748Z,11.60
2019-02-14T13:22:42.195Z,11.10
2019-02-14T13:25:11.862Z,10.80
2019-02-14T13:27:40.374Z,10.60
2019-02-14T13:30:17.852Z,10.40
2019-02-14T13:32:46.292Z,10.40
2019-02-14T13:35:14.755Z,10.20
2019-02-14T13:37:43.223Z,10.10
2019-02-14T13:40:11.731Z,10.80
2019-02-14T13:42:40.193Z,11.50
2019-02-14T13:45:11.373Z,12.30
2019-02-14T13:47:39.835Z,12.60
2019-02-14T13:50:10.921Z,13.60
2019-02-14T13:52:39.379Z,14.10
2019-02-14T13:55:09.663Z,13.40
2019-02-14T13:57:38.140Z,13.20
2019-02-14T14:00:18.171Z,13.90
2019-02-14T14:02:46.632Z,13.10
2019-02-14T14:05:15.080Z,12.80
2019-02-14T14:07:43.562Z,12.50
2019-02-14T14:10:12.016Z,12.50
2019-02-14T14:12:42.245Z,12.10
2019-02-14T14:15:10.704Z,12.60
2019-02-14T14:17:39.162Z,12.70
2019-02-14T14:20:08.650Z,13.00
2019-02-14T14:22:37.184Z,12.40
2019-02-14T14:25:12.103Z,12.10
2019-02-14T14:27:40.565Z,12.30
2019-02-14T14:30:13.231Z,12.20
2019-02-14T14:32:41.691Z,11.80
2019-02-14T14:35:11.389Z,11.30
2019-02-14T14:37:40.248Z,11.00
2019-02-14T14:40:13.967Z,11.20
2019-02-14T14:42:52.992Z,11.70
2019-02-14T14:45:23.147Z,11.80
2019-02-14T14:47:51.599Z,11.60
2019-02-14T14:50:20.054Z,11.60
2019-02-14T14:52:48.518Z,12.00
2019-02-14T14:55:16.971Z,12.00
2019-02-14T14:57:45.418Z,12.00
2019-02-14T15:00:13.931Z,12.40
2019-02-14T15:02:42.403Z,12.30
2019-02-14T15:05:10.900Z,12.20
2019-02-14T15:07:39.367Z,12.30
2019-02-14T15:10:08.079Z,12.10
2019-02-14T15:12:36.536Z,11.70
2019-02-14T15:15:06.322Z,11.80
2019-02-14T15:17:34.795Z,11.70
2019-02-14T15:20:06.162Z,11.80
2019-02-14T15:22:34.619Z,11.20
2019-02-14T15:25:03.080Z,11.40
2019-02-14T15:27:31.549Z,11.40
2019-02-14T15:30:00.283Z,11.10
2019-02-14T15:32:28.818Z,10.70
2019-02-14T15:34:57.263Z,10.30
2019-02-14T15:37:25.720Z,10.00
2019-02-14T15:39:54.175Z,9.80
2019-02-14T15:42:22.635Z,9.60
2019-02-14T15:44:51.138Z,9.50
2019-02-14T15:47:19.605Z,9.40
2019-02-14T15:49:49.357Z,9.30
2019-02-14T15:52:17.971Z,9.20
2019-02-14T15:54:46.414Z,9.10
2019-02-14T15:57:16.491Z,9.10
2019-02-14T15:59:45.469Z,9.00
2019-02-14T16:02:14.155Z,8.90
2019-02-14T16:04:42.599Z,8.90
2019-02-14T16:07:11.083Z,8.80
2019-02-14T16:09:41.291Z,8.70
2019-02-14T16:12:09.993Z,8.60
2019-02-14T16:14:38.479Z,8.40
2019-02-14T16:17:11.229Z,8.40
2019-02-14T16:19:37.098Z,8.30
2019-02-14T16:22:05.547Z,8.20
2019-02-14T16:24:34.876Z,8.20
2019-02-14T16:27:03.425Z,8.10
2019-02-14T16:29:32.063Z,8.00
2019-02-14T16:32:00.498Z,7.90
2019-02-14T16:34:28.998Z,7.70
2019-02-14T16:36:57.450Z,7.40
2019-02-14T16:39:25.971Z,7.30
2019-02-14T16:41:54.415Z,7.10
2019-02-14T16:44:22.871Z,6.90
2019-02-14T16:46:51.371Z,6.80
2019-02-14T16:49:21.518Z,6.60
2019-02-14T16:52:06.305Z,6.50
2019-02-14T16:54:35.747Z,6.40
2019-02-14T16:57:04.875Z,6.20
2019-02-14T16:59:34.314Z,6.10
2019-02-14T17:02:07.772Z,6.10
2019-02-14T17:04:36.394Z,5.90
2019-02-14T17:07:04.871Z,5.80
2019-02-14T17:09:34.319Z,5.70
2019-02-14T17:12:02.752Z,5.60
2019-02-14T17:14:31.235Z,5.50
2019-02-14T17:16:59.727Z,5.40
2019-02-14T17:19:28.185Z,5.40
2019-02-14T17:21:56.657Z,5.40
2019-02-14T17:24:25.115Z,5.40
2019-02-14T17:26:53.555Z,5.40
2019-02-14T17:29:22.015Z,5.30
2019-02-14T17:31:50.455Z,5.20
2019-02-14T17:34:18.910Z,5.10
2019-02-14T17:36:47.347Z,4.90
2019-02-14T17:39:15.804Z,4.90
2019-02-14T17:41:44.249Z,4.80
2019-02-14T17:44:12.718Z,4.80
2019-02-14T17:46:41.151Z,4.70
2019-02-14T17:49:09.608Z,4.70
2019-02-14T17:51:38.063Z,4.70
2019-02-14T17:54:06.616Z,4.70
2019-02-14T17:56:35.057Z,4.80
2019-02-14T17:59:04.427Z,4.80
2019-02-14T18:01:32.884Z,4.60
2019-02-14T18:04:01.411Z,4.50
2019-02-14T18:06:29.855Z,4.50
2019-02-14T18:08:58.295Z,4.30
2019-02-14T18:11:26.747Z,4.30
2019-02-14T18:13:55.188Z,4.20
2019-02-14T18:16:23.645Z,4.30
2019-02-14T18:18:52.081Z,4.20
2019-02-14T18:21:20.551Z,4.20
2019-02-14T18:23:49.008Z,4.00
2019-02-14T18:26:17.468Z,4.00
2019-02-14T18:28:45.907Z,3.90
2019-02-14T18:31:14.354Z,3.80
2019-02-14T18:33:42.804Z,3.70
2019-02-14T18:36:11.255Z,3.70
2019-02-14T18:38:39.703Z,3.80
2019-02-14T18:41:08.155Z,3.70
2019-02-14T18:43:36.594Z,3.60
2019-02-14T18:46:05.043Z,3.50
2019-02-14T18:48:33.483Z,3.50
2019-02-14T18:51:01.956Z,3.40
2019-02-14T18:53:30.402Z,3.40
2019-02-14T18:55:58.925Z,3.40
2019-02-14T18:58:27.371Z,4.20
2019-02-14T19:00:55.818Z,3.80
2019-02-14T19:03:24.250Z,3.70
2019-02-14T19:05:52.716Z,3.60
2019-02-14T19:08:21.161Z,3.50
2019-02-14T19:10:49.647Z,3.40
2019-02-14T19:13:18.937Z,3.30
2019-02-14T19:15:47.546Z,3.20
2019-02-14T19:18:16.003Z,3.20
2019-02-14T19:20:44.523Z,3.10
2019-02-14T19:23:23.437Z,3.10
2019-02-14T19:25:43.127Z,3.10
2019-02-14T19:28:11.583Z,3.00
2019-02-14T19:30:40.023Z,2.90
2019-02-14T19:33:08.485Z,2.80
2019-02-14T19:35:36.987Z,2.70
2019-02-14T19:38:05.446Z,2.70
2019-02-14T19:40:34.807Z,2.60
2019-02-14T19:43:07.505Z,2.60
2019-02-14T19:45:36.851Z,2.60
2019-02-14T19:48:05.480Z,2.60
2019-02-14T19:50:34.910Z,2.60
2019-02-14T19:53:03.452Z,2.60
2019-02-14T19:55:31.897Z,2.60
2019-02-14T19:58:00.347Z,2.70
2019-02-14T20:00:28.794Z,2.80
2019-02-14T20:02:57.316Z,2.90
2019-02-14T20:05:25.763Z,3.10
2019-02-14T20:07:54.220Z,3.40
2019-02-14T20:10:22.736Z,3.50
2019-02-14T20:12:51.218Z,3.50
2019-02-14T20:15:20.507Z,3.50
2019-02-14T20:17:49.031Z,3.20
2019-02-14T20:20:17.477Z,3.00
2019-02-14T20:22:45.927Z,2.70
2019-02-14T20:25:17.271Z,2.50
2019-02-14T20:27:45.734Z,2.50
2019-02-14T20:30:14.187Z,2.30
2019-02-14T20:32:42.662Z,2.80
2019-02-14T20:35:11.157Z,3.30
2019-02-14T20:37:39.600Z,3.00
2019-02-14T20:40:10.098Z,2.70
2019-02-14T20:42:38.619Z,2.50
2019-02-14T20:45:12.956Z,2.20
2019-02-14T20:47:41.415Z,2.00
2019-02-14T20:50:12.255Z,1.90
2019-02-14T20:52:40.703Z,1.90
2019-02-14T20:55:11.899Z,1.80
2019-02-14T20:57:40.341Z,1.70
2019-02-14T21:00:12.495Z,1.70
2019-02-14T21:02:40.938Z,1.70
2019-02-14T21:05:09.463Z,1.70
2019-02-14T21:07:37.909Z,1.70
2019-02-14T21:10:07.611Z,1.60
2019-02-14T21:12:36.135Z,1.70
2019-02-14T21:15:06.593Z,1.60
2019-02-14T21:17:35.083Z,1.50
2019-02-14T21:20:04.408Z,1.40
2019-02-14T21:22:32.851Z,1.40
2019-02-14T21:25:01.316Z,1.30
2019-02-14T21:27:29.824Z,1.30
2019-02-14T21:29:58.269Z,1.30
2019-02-14T21:32:26.823Z,1.30
2019-02-14T21:34:55.343Z,1.40
2019-02-14T21:37:24.069Z,1.40
2019-02-14T21:39:52.912Z,1.30
2019-02-14T21:42:29.050Z,1.30
2019-02-14T21:44:54.723Z,1.20
2019-02-14T21:47:23.432Z,1.10
2019-02-14T21:49:52.216Z,0.90
2019-02-14T21:52:21.207Z,0.90
2019-02-14T21:54:50.000Z,0.90
2019-02-14T21:57:18.887Z,0.90
2019-02-14T21:59:47.790Z,0.80
2019-02-14T22:02:16.588Z,0.70
2019-02-14T22:04:45.596Z,0.70
2019-02-14T22:07:14.500Z,0.70
2019-02-14T22:09:43.282Z,0.70
2019-02-14T22:12:11.964Z,0.70
2019-02-14T22:14:40.905Z,0.70
2019-02-14T22:17:09.589Z,0.80
2019-02-14T22:19:40.015Z,0.80
2019-02-14T22:22:08.779Z,0.70
2019-02-14T22:24:37.651Z,0.70
2019-02-14T22:27:06.565Z,0.80
2019-02-14T22:29:35.477Z,1.00
2019-02-14T22:32:04.265Z,1.20
2019-02-14T22:34:33.019Z,1.30
2019-02-14T22:37:04.431Z,1.50
2019-02-14T22:39:33.680Z,1.60
2019-02-14T22:42:02.371Z,1.90
2019-02-14T22:44:31.390Z,2.10
2019-02-14T22:47:00.193Z,2.00
2019-02-14T22:49:28.937Z,2.00
2019-02-14T22:51:57.711Z,2.00
2019-02-14T22:54:26.386Z,1.90
2019-02-14T22:56:55.070Z,2.00
2019-02-14T22:59:23.828Z,1.90
2019-02-14T23:01:52.596Z,1.80
2019-02-14T23:04:21.335Z,1.60
2019-02-14T23:06:50.066Z,1.60
2019-02-14T23:09:18.982Z,1.30
2019-02-14T23:11:47.854Z,1.20
2019-02-14T23:14:16.668Z,1.20
2019-02-14T23:16:45.728Z,1.10
2019-02-14T23:19:14.462Z,1.30
2019-02-14T23:21:42.976Z,1.30
2019-02-14T23:24:11.423Z,1.40
2019-02-14T23:26:39.893Z,1.40
2019-02-14T23:29:08.776Z,1.40
2019-02-14T23:31:37.897Z,1.50
2019-02-14T23:34:06.471Z,1.40
2019-02-14T23:36:35.066Z,1.30
2019-02-14T23:39:04.646Z,1.40
2019-02-14T23:41:33.115Z,1.30
2019-02-14T23:44:01.575Z,1.50
2019-02-14T23:46:30.092Z,1.40
2019-02-14T23:48:58.600Z,1.40
2019-02-14T23:51:27.050Z,1.20
2019-02-14T23:53:55.559Z,1.20
2019-02-14T23:56:24.067Z,1.10
2019-02-14T23:58:52.529Z,0.90
